Falfurrias, Brooks County Airport (KBKS)

NameBrooks County Airport
CityFalfurrias
CountryUnited States
ICAOKBKS
IATA
Altitude34 m
CoordinatesGoogle Map
Live Air TrafficLiveATC.net
METARKBKS 192355Z AUTO 11015G23KT 7SM CLR 36/24 A2987 RMK AO1 T03550236 10397 20355
2019-08-19 23:55:00 Wind: East (110°) 7.72 m/s - Visibility: 11265.38 m - Temperature: 36 °C - Dew point: 24 °C - Humidity: 50% - Pressure: 1011.51 hPa
Statistics

The table below shows the detailed information of all flights to/from Falfurrias, Brooks County Airport (KBKS).